首页
METAR-TAF:

METAR-TAF

机场 :

錫比烏, 罗马尼亚

纬度: 45-48N, 经度: 024-09E, 海拔: 443米

当前天气观测

该预报发布于28分钟前的07:00 UTC
风速2节,风向多变
温度 18°C
湿度 64%
气压 1008 hPa
能见度10公里或以上
少量云层高于3600英尺

METAR: LRSB 200700Z VRB02KT 9999 FEW036 18/11 Q1008

时间: 10:28 (07:28 UTC)

预报

该预报发布于2小时和28分钟前的05:00 UTC
预报有效从20日的 06点(UTC)到 21日的 06点(UTC)
风速12节,风向南转南东
能见度10公里或以上
1500米以下无云,无积雨云
几率 30% :
短暂存在
从 20日的 08点(UTC)到 20日的 12点(UTC)
能見度: 5000
散云层高于1000英尺
散云层高于4000英尺, 积雨云.
雷暴, 小雨
短暂存在
从 20日的 12点(UTC)到 20日的 17点(UTC)
风速15节,风向多变,有时为25节阵风
能見度: 3000
多云层高于1000英尺
多云层高于3000英尺, 积雨云.
雷暴, 雨
成为
从 20日的 17点(UTC)到 20日的 19点(UTC)
风速6节,风向西南
能見度: 5000
多云层高于1500英尺
多云层高于4000英尺
小雨
短暂存在
从 20日的 23点(UTC)到 21日的 05点(UTC)
能見度: 3000
多云层高于500英尺
多云层高于2500英尺, 积雨云.
雷暴, 雨

TAF: LRSB 200500Z 2006/2106 15012KT CAVOK PROB30 TEMPO 2008/2012 5000 -TSRA SCT010 SCT040CB TEMPO 2012/2017 VRB15G25KT 3000 TSRA BKN010 BKN030CB BECMG 2017/2019 23006KT 5000 -RA BKN015 BKN040 TEMPO 2023/2105 3000 TSRA BKN005 BKN025CB

超过4000个机场的气象观测和天气预报(METAR&TAF报告)。

可查询的气象台以黄色和红色小点在地图上表示。

将鼠标移到小点上方,可查看气象台名称。

然后点击查看天气观测和预报。

如需切换地图:点击带黑十字的绿色按钮放大地图;点击带横线的绿色按钮缩小地图;或者点击绿色箭头查看邻近地区的地图。


METAR-TAF: